createdAt,value
2022-12-08T00:00:10.307Z,101127.53
2022-12-08T00:00:42.005Z,101128.31
2022-12-08T00:01:16.705Z,101129.91
2022-12-08T00:01:48.519Z,101123.72
2022-12-08T00:02:20.117Z,101130.69
2022-12-08T00:02:51.895Z,101121.03
2022-12-08T00:03:23.702Z,101124.50
2022-12-08T00:03:56.225Z,101120.72
2022-12-08T00:04:27.601Z,101116.44
2022-12-08T00:05:17.249Z,101121.50
2022-12-08T00:06:07.835Z,101118.50
2022-12-08T00:07:02.653Z,101117.69
2022-12-08T00:07:52.687Z,101109.94
2022-12-08T00:08:42.735Z,101099.94
2022-12-08T00:09:24.124Z,101111.53
2022-12-08T00:09:55.609Z,101108.03
2022-12-08T00:10:48.383Z,101108.81
2022-12-08T00:11:19.722Z,101098.84
2022-12-08T00:11:53.614Z,101104.22
2022-12-08T00:12:24.987Z,101099.94
2022-12-08T00:12:56.410Z,101105.81
2022-12-08T00:13:27.782Z,101101.53
2022-12-08T00:13:59.168Z,101100.44
2022-12-08T00:14:33.633Z,101100.75
2022-12-08T00:15:05.685Z,101099.94
2022-12-08T00:15:37.277Z,101099.16
2022-12-08T00:16:09.325Z,101096.78
2022-12-08T00:16:40.730Z,101089.97
2022-12-08T00:17:14.536Z,101097.72
2022-12-08T00:17:45.913Z,101095.34
2022-12-08T00:18:17.355Z,101089.66
2022-12-08T00:18:48.690Z,101094.56
2022-12-08T00:19:20.539Z,101087.28
2022-12-08T00:19:51.940Z,101081.09
2022-12-08T00:20:23.262Z,101086.97
2022-12-08T00:20:58.338Z,101088.53
2022-12-08T00:21:29.712Z,101084.25
2022-12-08T00:22:01.642Z,101089.34
2022-12-08T00:22:32.983Z,101099.00
2022-12-08T00:23:04.432Z,101089.34
2022-12-08T00:23:35.841Z,101100.59
2022-12-08T00:24:07.620Z,101093.13
2022-12-08T00:24:40.462Z,101097.09
2022-12-08T00:25:11.913Z,101104.38
2022-12-08T00:25:43.236Z,101101.06
2022-12-08T00:26:14.611Z,101100.28
2022-12-08T00:26:46.398Z,101096.78
2022-12-08T00:27:18.109Z,101101.06
2022-12-08T00:27:49.520Z,101094.88
2022-12-08T00:28:21.039Z,101092.19
2022-12-08T00:29:43.071Z,101092.97
2022-12-08T00:30:14.450Z,101097.56
2022-12-08T00:30:45.979Z,101089.50
2022-12-08T00:31:17.401Z,101092.19
2022-12-08T00:31:48.921Z,101088.69
2022-12-08T00:32:20.426Z,101089.16
2022-12-08T00:32:51.869Z,101087.25
2022-12-08T00:33:23.294Z,101086.78
2022-12-08T00:33:54.754Z,101091.41
2022-12-08T00:34:26.338Z,101092.19
2022-12-08T00:34:57.707Z,101086.78
2022-12-08T00:35:29.040Z,101086.31
2022-12-08T00:36:06.557Z,101089.50
2022-12-08T00:36:37.986Z,101080.63
2022-12-08T00:37:09.483Z,101079.50
2022-12-08T00:37:40.838Z,101084.09
2022-12-08T00:38:12.218Z,101080.28
2022-12-08T00:38:44.724Z,101075.53
2022-12-08T00:39:17.362Z,101078.38
2022-12-08T00:39:48.745Z,101072.53
2022-12-08T00:40:20.090Z,101076.47
2022-12-08T00:40:51.439Z,101074.88
2022-12-08T00:41:43.878Z,101076.47
2022-12-08T00:42:15.554Z,101078.38
2022-12-08T00:42:46.871Z,101069.50
2022-12-08T00:43:18.184Z,101075.34
2022-12-08T00:43:49.617Z,101071.88
2022-12-08T00:44:20.959Z,101064.91
2022-12-08T00:44:52.307Z,101062.19
2022-12-08T00:45:23.697Z,101057.97
2022-12-08T00:45:55.205Z,101061.41
2022-12-08T00:46:26.688Z,101059.06
2022-12-08T00:46:58.199Z,101064.44
2022-12-08T00:47:29.573Z,101057.16
2022-12-08T00:48:00.906Z,101056.03
2022-12-08T00:48:32.266Z,101060.66
2022-12-08T00:49:05.374Z,101054.47
2022-12-08T00:49:36.833Z,101055.25
2022-12-08T00:50:08.709Z,101052.88
2022-12-08T00:50:40.096Z,101056.22
2022-12-08T00:51:11.440Z,101057.00
2022-12-08T00:51:43.187Z,101060.19
2022-12-08T00:52:14.693Z,101053.53
2022-12-08T00:52:46.209Z,101053.03
2022-12-08T00:53:17.542Z,101054.31
2022-12-08T00:53:48.856Z,101050.34
2022-12-08T00:54:20.674Z,101048.94
2022-12-08T00:54:52.016Z,101046.56
2022-12-08T00:55:23.390Z,101048.94
2022-12-08T00:55:54.733Z,101047.34
2022-12-08T00:56:27.276Z,101057.00
2022-12-08T00:56:58.646Z,101051.31
2022-12-08T00:57:30.087Z,101052.72
2022-12-08T00:58:01.590Z,101040.69
2022-12-08T00:58:32.952Z,101039.56
2022-12-08T00:59:05.520Z,101040.69
2022-12-08T00:59:36.932Z,101038.00
2022-12-08T01:00:08.722Z,101041.47
2022-12-08T01:00:41.557Z,101046.56
2022-12-08T01:01:14.218Z,101045.44
2022-12-08T01:01:46.651Z,101044.66
2022-12-08T01:02:18.018Z,101038.47
2022-12-08T01:02:49.468Z,101038.47
2022-12-08T01:03:20.981Z,101039.25
2022-12-08T01:03:52.527Z,101045.75
2022-12-08T01:04:24.201Z,101037.69
2022-12-08T01:04:55.609Z,101043.84
2022-12-08T01:05:27.010Z,101047.34
2022-12-08T01:06:03.584Z,101044.66
2022-12-08T01:06:35.442Z,101043.84
2022-12-08T01:07:06.867Z,101039.25
2022-12-08T01:07:38.285Z,101034.19
2022-12-08T01:08:09.728Z,101039.56
2022-12-08T01:08:41.835Z,101042.28
2022-12-08T01:09:15.162Z,101040.38
2022-12-08T01:09:46.483Z,101036.09
2022-12-08T01:10:18.040Z,101036.09
2022-12-08T01:10:49.444Z,101031.81
2022-12-08T01:11:20.952Z,101036.09
2022-12-08T01:11:52.340Z,101036.09
2022-12-08T01:12:24.133Z,101041.94
2022-12-08T01:12:55.508Z,101034.19
2022-12-08T01:13:26.934Z,101035.31
2022-12-08T01:13:58.414Z,101032.59
2022-12-08T01:14:29.824Z,101036.88
2022-12-08T01:15:02.681Z,101036.88
2022-12-08T01:15:34.383Z,101037.69
2022-12-08T01:16:06.592Z,101037.69
2022-12-08T01:16:38.150Z,101031.03
2022-12-08T01:17:09.657Z,101039.56
2022-12-08T01:17:41.189Z,101042.28
2022-12-08T01:18:12.546Z,101042.28
2022-12-08T01:18:43.875Z,101042.28
2022-12-08T01:19:16.257Z,101044.97
2022-12-08T01:19:47.668Z,101041.47
2022-12-08T01:20:19.030Z,101044.19
2022-12-08T01:20:50.418Z,101042.28
2022-12-08T01:21:22.013Z,101038.00
2022-12-08T01:21:53.509Z,101032.78
2022-12-08T01:22:25.334Z,101040.22
2022-12-08T01:22:56.861Z,101038.78
2022-12-08T01:23:28.495Z,101032.28
2022-12-08T01:24:01.019Z,101036.09
2022-12-08T01:24:32.503Z,101041.94
2022-12-08T01:25:04.224Z,101034.19
2022-12-08T01:25:35.784Z,101033.09
2022-12-08T01:26:09.096Z,101034.19
2022-12-08T01:26:41.234Z,101031.97
2022-12-08T01:27:15.904Z,101031.66
2022-12-08T01:27:47.347Z,101031.66
2022-12-08T01:28:18.786Z,101025.78
2022-12-08T01:28:50.712Z,101029.75
2022-12-08T01:29:22.247Z,101029.75
2022-12-08T01:29:53.618Z,101027.84
2022-12-08T01:30:25.064Z,101029.28
2022-12-08T01:30:58.042Z,101034.81
2022-12-08T01:31:29.497Z,101027.06
2022-12-08T01:32:00.951Z,101026.25
2022-12-08T01:32:32.491Z,101016.91
2022-12-08T01:33:03.946Z,101026.25
2022-12-08T01:33:35.344Z,101023.56
2022-12-08T01:34:08.067Z,101027.06
2022-12-08T01:34:39.579Z,101023.09
2022-12-08T01:35:11.007Z,101031.97
2022-12-08T01:35:42.399Z,101028.47
2022-12-08T01:36:29.206Z,101025.47
2022-12-08T01:37:00.687Z,101027.38
2022-12-08T01:37:32.131Z,101029.59
2022-12-08T01:38:03.525Z,101027.69
2022-12-08T01:38:35.017Z,101023.41
2022-12-08T01:39:10.483Z,101037.03
2022-12-08T01:39:41.847Z,101034.66
2022-12-08T01:40:13.667Z,101038.94
2022-12-08T01:40:45.561Z,101045.13
2022-12-08T01:41:19.810Z,101048.59
2022-12-08T01:41:51.153Z,101044.00
2022-12-08T01:42:23.749Z,101041.31
2022-12-08T01:42:55.128Z,101047.81
2022-12-08T01:43:50.930Z,101052.88
2022-12-08T01:44:22.287Z,101047.50
2022-12-08T01:44:59.782Z,101051.31
2022-12-08T01:45:32.626Z,101045.44
2022-12-08T01:46:04.167Z,101038.16
2022-12-08T01:46:38.122Z,101043.53
2022-12-08T01:47:09.943Z,101036.56
2022-12-08T01:47:45.593Z,101032.75
2022-12-08T01:48:27.579Z,101028.47
2022-12-08T01:49:23.800Z,101023.56
2022-12-08T01:49:55.256Z,101021.66
2022-12-08T01:50:28.313Z,101027.38
2022-12-08T01:50:59.662Z,101034.66
2022-12-08T01:51:37.729Z,101034.34
2022-12-08T01:52:23.343Z,101031.97
2022-12-08T01:52:59.504Z,101034.66
2022-12-08T01:53:33.005Z,101032.44
2022-12-08T01:54:06.832Z,101033.22
2022-12-08T01:54:48.602Z,101027.06
2022-12-08T01:55:31.707Z,101032.44
2022-12-08T01:56:10.015Z,101023.88
2022-12-08T01:56:46.234Z,101029.28
2022-12-08T01:57:27.660Z,101021.66
2022-12-08T01:58:22.659Z,101017.72
2022-12-08T01:58:55.643Z,101024.69
2022-12-08T01:59:30.495Z,101019.28
2022-12-08T02:00:07.345Z,101023.88
2022-12-08T02:00:39.076Z,101028.47
2022-12-08T02:01:11.203Z,101026.59
2022-12-08T02:01:42.865Z,101029.28
2022-12-08T02:02:14.351Z,101023.09
2022-12-08T02:03:04.753Z,101024.69
2022-12-08T02:03:48.027Z,101025.00
2022-12-08T02:04:19.426Z,101028.00
2022-12-08T02:04:50.875Z,101022.31
2022-12-08T02:05:25.732Z,101020.72
2022-12-08T02:05:58.474Z,101026.09
2022-12-08T02:06:33.650Z,101026.09
2022-12-08T02:07:08.298Z,101021.50
2022-12-08T02:07:40.218Z,101023.41
2022-12-08T02:08:13.712Z,101025.00
2022-12-08T02:08:46.621Z,101025.00
2022-12-08T02:09:19.203Z,101018.03
2022-12-08T02:09:51.397Z,101017.25
2022-12-08T02:10:24.545Z,101016.91
2022-12-08T02:10:56.078Z,101016.13
2022-12-08T02:11:27.656Z,101019.63
2022-12-08T02:12:00.287Z,101011.38
2022-12-08T02:12:31.750Z,101013.75
2022-12-08T02:13:05.335Z,101013.75
2022-12-08T02:13:37.252Z,101015.34
2022-12-08T02:14:11.634Z,101017.25
2022-12-08T02:15:53.704Z,101010.75
2022-12-08T02:16:33.964Z,101010.25
2022-12-08T02:17:36.029Z,101018.03
2022-12-08T02:18:31.995Z,101008.84
2022-12-08T02:19:32.852Z,101004.56
2022-12-08T02:20:33.155Z,100998.38
2022-12-08T02:21:29.332Z,101003.75
2022-12-08T02:22:11.485Z,100999.16
2022-12-08T02:23:26.675Z,100997.59
2022-12-08T02:24:22.885Z,101001.88
2022-12-08T02:25:31.274Z,100993.78
2022-12-08T02:26:23.986Z,100998.06
2022-12-08T02:27:29.315Z,100997.28
2022-12-08T02:28:06.469Z,100997.59
2022-12-08T02:29:34.942Z,100996.00
2022-12-08T02:30:18.733Z,100991.41
2022-12-08T02:31:11.859Z,100983.66
2022-12-08T02:32:11.003Z,100992.19
2022-12-08T02:33:19.982Z,100984.44
2022-12-08T02:34:15.617Z,100982.84
2022-12-08T02:35:02.690Z,100984.75
2022-12-08T02:35:48.638Z,100982.06
2022-12-08T02:36:52.253Z,100989.03
2022-12-08T02:37:37.870Z,100983.66
2022-12-08T02:38:25.435Z,100981.59
2022-12-08T02:38:56.868Z,100984.75
2022-12-08T02:39:43.050Z,100981.28
2022-12-08T02:40:24.149Z,100982.06
2022-12-08T02:41:19.138Z,100983.97
2022-12-08T02:42:02.172Z,100980.94
2022-12-08T02:43:00.847Z,100978.25
2022-12-08T02:44:13.461Z,100983.66
2022-12-08T02:45:04.203Z,100982.06
2022-12-08T02:45:43.623Z,100982.84
2022-12-08T02:46:23.946Z,100980.94
2022-12-08T02:47:04.559Z,100976.69
2022-12-08T02:47:36.174Z,100985.22
2022-12-08T02:48:08.986Z,100982.06
2022-12-08T02:48:41.979Z,100983.66
2022-12-08T02:49:15.192Z,100976.69
2022-12-08T02:49:47.111Z,100979.06
2022-12-08T02:50:18.807Z,100977.00
2022-12-08T02:50:50.244Z,100977.16
2022-12-08T02:51:21.692Z,100976.34
2022-12-08T02:52:04.603Z,100970.66
2022-12-08T02:52:43.039Z,100972.88
2022-12-08T02:53:45.698Z,100971.44
2022-12-08T02:54:17.237Z,100966.84
2022-12-08T02:54:53.451Z,100976.50
2022-12-08T02:55:28.538Z,100971.91
2022-12-08T02:56:20.767Z,100965.41
2022-12-08T02:57:10.207Z,100963.03
2022-12-08T02:58:06.019Z,100962.72
2022-12-08T02:58:54.700Z,100958.44
2022-12-08T02:59:50.986Z,100961.94
2022-12-08T03:00:25.488Z,100961.13
2022-12-08T03:01:27.582Z,100957.34
2022-12-08T03:02:25.807Z,100959.22
2022-12-08T03:03:26.220Z,100953.06
2022-12-08T03:04:29.719Z,100951.94
2022-12-08T03:05:22.427Z,100953.84
2022-12-08T03:06:22.170Z,100950.81
2022-12-08T03:07:33.551Z,100947.66
2022-12-08T03:08:21.698Z,100942.28
2022-12-08T03:09:19.129Z,100951.94
2022-12-08T03:10:01.014Z,100947.66
2022-12-08T03:10:40.825Z,100950.38
2022-12-08T03:11:42.077Z,100951.94
2022-12-08T03:12:23.372Z,100956.22
2022-12-08T03:13:20.830Z,100953.84
2022-12-08T03:13:57.213Z,100952.72
2022-12-08T03:14:30.763Z,100953.53
2022-12-08T03:15:08.577Z,100951.47
2022-12-08T03:15:41.729Z,100957.00
2022-12-08T03:16:18.468Z,100946.22
2022-12-08T03:16:55.683Z,100953.19
2022-12-08T03:17:31.010Z,100953.53
2022-12-08T03:18:05.325Z,100954.78
2022-12-08T03:18:44.062Z,100951.31
2022-12-08T03:19:19.853Z,100953.19
2022-12-08T03:19:54.447Z,100954.00
2022-12-08T03:20:29.798Z,100955.91
2022-12-08T03:21:02.151Z,100950.19
2022-12-08T03:21:35.213Z,100945.91
2022-12-08T03:22:07.274Z,100950.19
2022-12-08T03:22:41.080Z,100948.25
2022-12-08T03:23:16.209Z,100955.56
2022-12-08T03:23:51.404Z,100946.34
2022-12-08T03:24:23.207Z,100950.94
2022-12-08T03:24:56.355Z,100947.16
2022-12-08T03:25:33.834Z,100954.91
2022-12-08T03:26:13.308Z,100944.00
2022-12-08T03:26:54.346Z,100947.94
2022-12-08T03:27:31.271Z,100948.72
2022-12-08T03:28:02.809Z,100949.50
2022-12-08T03:28:34.491Z,100940.19
2022-12-08T03:29:06.643Z,100947.16
2022-12-08T03:29:38.492Z,100949.50
2022-12-08T03:30:10.428Z,100944.44
2022-12-08T03:30:44.746Z,100934.94
2022-12-08T03:31:18.680Z,100936.50
2022-12-08T03:31:55.150Z,100935.41
2022-12-08T03:32:49.230Z,100941.13
2022-12-08T03:33:27.823Z,100938.88
2022-12-08T03:34:00.727Z,100934.59
2022-12-08T03:34:32.775Z,100935.72
2022-12-08T03:35:09.131Z,100938.09
2022-12-08T03:35:41.348Z,100935.41
2022-12-08T03:36:14.085Z,100937.31
2022-12-08T03:36:46.275Z,100928.09
2022-12-08T03:37:18.570Z,100925.75
2022-12-08T03:37:50.347Z,100930.81
2022-12-08T03:38:22.547Z,100928.44
2022-12-08T03:38:54.749Z,100925.75
2022-12-08T03:39:26.303Z,100926.53
2022-12-08T03:39:57.666Z,100928.44
2022-12-08T03:40:29.015Z,100928.44
2022-12-08T03:41:18.386Z,100928.91
2022-12-08T03:41:49.935Z,100923.03
2022-12-08T03:42:21.714Z,100926.53
2022-12-08T03:42:53.060Z,100918.75
2022-12-08T03:43:24.429Z,100923.03
2022-12-08T03:43:59.313Z,100918.75
2022-12-08T03:44:30.662Z,100914.16
2022-12-08T03:45:02.089Z,100912.25
2022-12-08T03:45:33.804Z,100910.69
2022-12-08T03:46:05.368Z,100914.97
2022-12-08T03:46:36.905Z,100916.06
2022-12-08T03:47:08.271Z,100916.41
2022-12-08T03:47:39.700Z,100910.69
2022-12-08T03:48:11.048Z,100905.16
2022-12-08T03:48:42.451Z,100909.91
2022-12-08T03:49:13.794Z,100909.44
2022-12-08T03:49:45.109Z,100908.00
2022-12-08T03:50:16.471Z,100911.78
2022-12-08T03:50:47.846Z,100913.38
2022-12-08T03:51:19.925Z,100911.00
2022-12-08T03:51:53.459Z,100907.19
2022-12-08T03:52:24.780Z,100904.03
2022-12-08T03:52:56.143Z,100916.41
2022-12-08T03:53:27.486Z,100909.44
2022-12-08T03:53:58.907Z,100904.38
2022-12-08T03:54:30.284Z,100907.84
2022-12-08T03:55:01.697Z,100914.50
2022-12-08T03:55:33.075Z,100906.72
2022-12-08T03:56:07.105Z,100904.81
2022-12-08T03:56:39.507Z,100906.72
2022-12-08T03:57:10.874Z,100905.63
2022-12-08T03:57:42.715Z,100905.28
2022-12-08T03:58:14.090Z,100897.84
2022-12-08T03:58:45.539Z,100898.66
2022-12-08T03:59:16.919Z,100893.25
2022-12-08T03:59:48.338Z,100899.75
2022-12-08T04:00:19.851Z,100902.47
2022-12-08T04:00:51.383Z,100901.69
2022-12-08T04:01:23.406Z,100898.53
2022-12-08T04:01:54.914Z,100903.13
2022-12-08T04:02:26.432Z,100909.00
2022-12-08T04:02:57.819Z,100900.91
2022-12-08T04:03:29.225Z,100900.13
2022-12-08T04:04:00.692Z,100904.38
2022-12-08T04:04:32.101Z,100913.59
2022-12-08T04:05:03.635Z,100915.16
2022-12-08T04:05:34.949Z,100915.16
2022-12-08T04:06:07.278Z,100909.63
2022-12-08T04:06:38.663Z,100915.50
2022-12-08T04:07:10.043Z,100911.22
2022-12-08T04:07:41.422Z,100906.94
2022-12-08T04:08:12.985Z,100908.84
2022-12-08T04:08:44.568Z,100911.69
2022-12-08T04:09:16.252Z,100909.31
2022-12-08T04:09:47.623Z,100912.47
2022-12-08T04:10:18.957Z,100904.72
2022-12-08T04:10:50.352Z,100911.22
2022-12-08T04:11:21.770Z,100906.63
2022-12-08T04:11:53.086Z,100907.09
2022-12-08T04:12:24.476Z,100912.78
2022-12-08T04:12:57.134Z,100901.41
2022-12-08T04:13:28.664Z,100908.38
2022-12-08T04:14:00.029Z,100902.97
2022-12-08T04:14:31.415Z,100896.00
2022-12-08T04:15:02.882Z,100904.09
2022-12-08T04:15:34.304Z,100894.44
2022-12-08T04:16:06.827Z,100903.31
2022-12-08T04:16:38.455Z,100902.19
2022-12-08T04:17:09.840Z,100902.19
2022-12-08T04:17:41.167Z,100895.69
2022-12-08T04:18:12.832Z,100896.47
2022-12-08T04:18:44.414Z,100899.97
2022-12-08T04:19:15.879Z,100902.66
2022-12-08T04:19:47.257Z,100901.09
2022-12-08T04:20:18.693Z,100899.50
2022-12-08T04:20:50.125Z,100900.75
2022-12-08T04:21:21.880Z,100892.22
2022-12-08T04:21:53.455Z,100898.06
2022-12-08T04:22:24.821Z,100893.47
2022-12-08T04:22:56.619Z,100895.38
2022-12-08T04:23:28.193Z,100894.59
2022-12-08T04:24:01.412Z,100888.41
2022-12-08T04:24:32.966Z,100882.22
2022-12-08T04:25:04.793Z,100890.31
2022-12-08T04:25:37.422Z,100893.78
2022-12-08T04:26:09.230Z,100893.00
2022-12-08T04:26:40.628Z,100886.03
2022-12-08T04:27:12.156Z,100893.00
2022-12-08T04:27:43.522Z,100880.16
2022-12-08T04:28:15.106Z,100883.66
2022-12-08T04:28:47.104Z,100887.94
2022-12-08T04:29:18.631Z,100880.66
2022-12-08T04:29:49.970Z,100882.53
2022-12-08T04:30:21.287Z,100885.25
2022-12-08T04:30:52.777Z,100889.50
2022-12-08T04:31:24.334Z,100881.75
2022-12-08T04:31:55.775Z,100885.25
2022-12-08T04:32:27.213Z,100888.72
2022-12-08T04:32:59.075Z,100893.78
2022-12-08T04:33:30.547Z,100885.56
2022-12-08T04:34:01.934Z,100891.41
2022-12-08T04:34:33.311Z,100885.25
2022-12-08T04:35:05.047Z,100890.63
2022-12-08T04:35:36.655Z,100885.25
2022-12-08T04:36:08.654Z,100884.44
2022-12-08T04:36:40.066Z,100887.16
2022-12-08T04:37:11.486Z,100886.03
2022-12-08T04:37:44.273Z,100880.66
2022-12-08T04:38:16.570Z,100888.25
2022-12-08T04:38:47.949Z,100877.47
2022-12-08T04:39:19.286Z,100883.66
2022-12-08T04:39:50.681Z,100876.84
2022-12-08T04:40:22.147Z,100883.00
2022-12-08T04:40:53.538Z,100873.69
2022-12-08T04:41:24.919Z,100870.19
2022-12-08T04:41:56.367Z,100874.78
2022-12-08T04:42:27.694Z,100875.25
2022-12-08T04:42:59.300Z,100878.41
2022-12-08T04:43:30.733Z,100879.53
2022-12-08T04:44:02.066Z,100877.63
2022-12-08T04:44:33.514Z,100875.72
2022-12-08T04:45:06.214Z,100879.69
2022-12-08T04:45:40.419Z,100868.44
2022-12-08T04:46:12.010Z,100871.91
2022-12-08T04:46:43.953Z,100874.28
2022-12-08T04:47:15.478Z,100870.00
2022-12-08T04:47:46.927Z,100879.22
2022-12-08T04:48:18.412Z,100873.03
2022-12-08T04:48:49.743Z,100879.22
2022-12-08T04:49:21.079Z,100880.78
2022-12-08T04:49:53.219Z,100883.81
2022-12-08T04:50:24.570Z,100873.81
2022-12-08T04:50:55.950Z,100884.28
2022-12-08T04:51:27.462Z,100880.78
2022-12-08T04:51:58.859Z,100888.53
2022-12-08T04:52:30.259Z,100885.06
2022-12-08T04:53:01.667Z,100879.69
2022-12-08T04:53:33.347Z,100874.94
2022-12-08T04:54:04.831Z,100881.59
2022-12-08T04:54:36.127Z,100878.88
2022-12-08T04:55:07.985Z,100880.78
2022-12-08T04:55:41.161Z,100872.72
2022-12-08T04:56:14.686Z,100876.66
2022-12-08T04:56:46.133Z,100883.16
2022-12-08T04:57:17.540Z,100880.47
2022-12-08T04:57:49.015Z,100878.56
2022-12-08T04:58:21.011Z,100869.69
2022-12-08T04:58:52.751Z,100876.19
2022-12-08T04:59:24.131Z,100878.88
2022-12-08T04:59:55.766Z,100876.19
2022-12-08T05:00:27.095Z,100868.44
2022-12-08T05:00:58.592Z,100878.88
2022-12-08T05:01:30.078Z,100875.41
2022-12-08T05:02:01.721Z,100875.41
2022-12-08T05:02:33.503Z,100881.91
2022-12-08T05:03:05.329Z,100878.09
2022-12-08T05:03:37.105Z,100867.66
2022-12-08T05:04:08.479Z,100876.50
2022-12-08T05:04:39.813Z,100869.53
2022-12-08T05:05:11.166Z,100878.88
2022-12-08T05:05:43.578Z,100875.72
2022-12-08T05:06:15.355Z,100876.50
2022-12-08T05:06:46.745Z,100876.84
2022-12-08T05:07:18.146Z,100880.31
2022-12-08T05:07:49.585Z,100870.34
2022-12-08T05:08:21.031Z,100876.50
2022-12-08T05:08:52.515Z,100875.72
2022-12-08T05:09:24.534Z,100876.19
2022-12-08T05:09:55.960Z,100874.59
2022-12-08T05:10:27.378Z,100872.72
2022-12-08T05:11:03.372Z,100875.25
2022-12-08T05:11:34.876Z,100875.72
2022-12-08T05:12:06.527Z,100879.22
2022-12-08T05:12:37.967Z,100874.13
2022-12-08T05:13:09.431Z,100869.53
2022-12-08T05:13:40.973Z,100878.75
2022-12-08T05:14:15.296Z,100873.34
2022-12-08T05:14:47.970Z,100879.53
2022-12-08T05:15:19.360Z,100877.16
2022-12-08T05:15:50.680Z,100872.88
2022-12-08T05:16:22.077Z,100876.38
2022-12-08T05:16:53.498Z,100882.53
2022-12-08T05:17:24.877Z,100880.66
2022-12-08T05:17:56.374Z,100879.06
2022-12-08T05:18:27.703Z,100869.41
2022-12-08T05:18:59.036Z,100875.25
2022-12-08T05:19:30.449Z,100872.09
2022-12-08T05:20:02.437Z,100876.84
2022-12-08T05:20:34.750Z,100872.88
2022-12-08T05:21:06.947Z,100870.97
2022-12-08T05:21:38.319Z,100871.31
2022-12-08T05:22:09.972Z,100874.47
2022-12-08T05:22:41.315Z,100869.41
2022-12-08T05:23:12.664Z,100877.81
2022-12-08T05:23:44.251Z,100868.59
2022-12-08T05:24:15.594Z,100871.63
2022-12-08T05:24:47.855Z,100868.94
2022-12-08T05:25:19.489Z,100875.44
2022-12-08T05:25:50.816Z,100872.28
2022-12-08T05:26:22.283Z,100879.56
2022-12-08T05:26:53.614Z,100877.19
2022-12-08T05:27:25.049Z,100872.91
2022-12-08T05:28:17.533Z,100871.81
2022-12-08T05:28:48.039Z,100875.59
2022-12-08T05:29:19.383Z,100882.56
2022-12-08T05:29:50.804Z,100870.22
2022-12-08T05:30:22.283Z,100877.19
2022-12-08T05:30:53.666Z,100880.66
2022-12-08T05:31:43.429Z,100877.19
2022-12-08T05:32:14.918Z,100880.66
2022-12-08T05:32:46.297Z,100877.50
2022-12-08T05:33:17.689Z,100880.19
2022-12-08T05:33:52.039Z,100873.22
2022-12-08T05:34:23.510Z,100866.31
2022-12-08T05:34:54.950Z,100872.00
2022-12-08T05:35:26.270Z,100871.34
2022-12-08T05:35:57.703Z,100870.22
2022-12-08T05:36:29.131Z,100868.63
2022-12-08T05:37:00.612Z,100870.53
2022-12-08T05:37:32.116Z,100875.59
2022-12-08T05:38:03.475Z,100872.44
2022-12-08T05:38:35.206Z,100874.81
2022-12-08T05:39:06.647Z,100874.03
2022-12-08T05:39:38.014Z,100872.91
2022-12-08T05:40:09.742Z,100867.84
2022-12-08T05:40:43.249Z,100874.50
2022-12-08T05:41:17.858Z,100872.91
2022-12-08T05:41:49.186Z,100868.19
2022-12-08T05:42:24.598Z,100867.06
2022-12-08T05:42:56.371Z,100870.53
2022-12-08T05:43:27.751Z,100862.03
2022-12-08T05:43:59.124Z,100867.84
2022-12-08T05:44:30.551Z,100867.84
2022-12-08T05:45:01.988Z,100861.66
2022-12-08T05:45:33.697Z,100860.13
2022-12-08T05:46:05.361Z,100859.34
2022-12-08T05:46:36.805Z,100862.47
2022-12-08T05:47:08.260Z,100857.88
2022-12-08T05:47:39.662Z,100859.44
2022-12-08T05:48:11.015Z,100857.53
2022-12-08T05:48:43.102Z,100858.34
2022-12-08T05:49:14.514Z,100855.97
2022-12-08T05:49:46.130Z,100858.34
2022-12-08T05:50:17.572Z,100854.06
2022-12-08T05:50:50.216Z,100851.03
2022-12-08T05:51:23.941Z,100855.97
2022-12-08T05:51:55.259Z,100850.91
2022-12-08T05:52:26.648Z,100859.34
2022-12-08T05:52:57.975Z,100858.22
2022-12-08T05:53:30.187Z,100853.94
2022-12-08T05:54:01.535Z,100864.38
2022-12-08T05:54:32.894Z,100859.34
2022-12-08T05:55:04.536Z,100857.44
2022-12-08T05:55:35.973Z,100854.72
2022-12-08T05:56:07.484Z,100860.91
2022-12-08T05:56:38.803Z,100853.59
2022-12-08T05:57:10.236Z,100852.84
2022-12-08T05:57:41.624Z,100862.47
2022-12-08T05:58:16.386Z,100856.28
2022-12-08T05:58:47.983Z,100863.59
2022-12-08T05:59:19.388Z,100861.34
2022-12-08T05:59:50.822Z,100860.56
2022-12-08T06:00:22.302Z,100859.44
2022-12-08T06:00:53.660Z,100861.34
2022-12-08T06:01:32.156Z,100864.84
2022-12-08T06:02:03.673Z,100848.69
2022-12-08T06:02:35.902Z,100856.75
2022-12-08T06:03:07.704Z,100859.44
2022-12-08T06:03:39.151Z,100854.06
2022-12-08T06:04:10.534Z,100858.34
2022-12-08T06:04:42.028Z,100853.28
2022-12-08T06:05:13.374Z,100861.03
2022-12-08T06:05:46.707Z,100855.63
2022-12-08T06:06:18.867Z,100855.63
2022-12-08T06:06:50.198Z,100855.63
2022-12-08T06:07:21.523Z,100861.50
2022-12-08T06:07:52.932Z,100861.50
2022-12-08T06:08:24.447Z,100853.41
2022-12-08T06:08:56.234Z,100862.59
2022-12-08T06:09:27.655Z,100856.91
2022-12-08T06:09:59.058Z,100853.41
2022-12-08T06:10:30.395Z,100859.59
2022-12-08T06:11:01.940Z,100852.63
2022-12-08T06:11:34.622Z,100855.31
2022-12-08T06:12:06.642Z,100856.44
2022-12-08T06:12:38.044Z,100861.50
2022-12-08T06:13:09.688Z,100853.41
2022-12-08T06:13:41.128Z,100852.63
2022-12-08T06:14:13.115Z,100846.44
2022-12-08T06:14:44.671Z,100856.91
2022-12-08T06:15:16.091Z,100852.31
2022-12-08T06:15:47.481Z,100853.41
2022-12-08T06:16:19.334Z,100855.78
2022-12-08T06:16:50.821Z,100844.06
2022-12-08T06:17:22.280Z,100842.66
2022-12-08T06:17:53.611Z,100850.41
2022-12-08T06:18:29.667Z,100854.22
2022-12-08T06:19:03.914Z,100853.09
2022-12-08T06:19:35.478Z,100851.19
2022-12-08T06:20:07.806Z,100845.81
2022-12-08T06:20:39.364Z,100841.53
2022-12-08T06:21:13.074Z,100850.06
2022-12-08T06:21:44.508Z,100844.53
2022-12-08T06:22:15.822Z,100849.59
2022-12-08T06:22:47.228Z,100853.88
2022-12-08T06:23:18.598Z,100849.59
2022-12-08T06:23:52.480Z,100855.78
2022-12-08T06:24:23.819Z,100846.13
2022-12-08T06:24:55.208Z,100849.59
2022-12-08T06:25:26.623Z,100844.22
2022-12-08T06:26:09.598Z,100843.09
2022-12-08T06:26:41.390Z,100851.19
2022-12-08T06:27:12.754Z,100841.53
2022-12-08T06:27:44.146Z,100841.22
2022-12-08T06:28:15.594Z,100843.09
2022-12-08T06:28:47.507Z,100843.56
2022-12-08T06:29:18.922Z,100843.09
2022-12-08T06:29:50.316Z,100842.31
2022-12-08T06:30:21.687Z,100844.69
2022-12-08T06:30:53.004Z,100837.25
2022-12-08T06:31:25.867Z,100839.16
2022-12-08T06:31:57.377Z,100845.47
2022-12-08T06:32:28.820Z,100847.38
2022-12-08T06:33:00.174Z,100842.31
2022-12-08T06:33:31.503Z,100845.81
2022-12-08T06:34:02.866Z,100851.19
2022-12-08T06:34:34.231Z,100847.72
2022-12-08T06:35:06.123Z,100851.97